Terminal Aerodrome Forecast
Issued by NWS

Home | Current Version | Previous Version | Graphics & Text | Print | Product List | Glossary On
Versions: 1 2 3 4 5 6 7 8 9 10 11 12 13 14 15
337
FTUS43 KBIS 171726
TAFDIK
TAF
KDIK 171726Z 1718/1818 25015G25KT P6SM SKC
     FM180000 21009KT P6SM FEW250
     FM180600 24014G21KT P6SM FEW250 WS020/28045KT
     FM181300 30018G26KT P6SM SCT250=

USA.gov is the U.S. government's official web portal to all federal, state and local government web resources and services.